sensor_id;sensor_type;location;lat;lon;timestamp;P1;durP1;ratioP1;P2;durP2;ratioP2
43449;SDS011;29041;42.266;23.110;2023-06-24T00:01:39;6.65;;;5.40;;
43449;SDS011;29041;42.266;23.110;2023-06-24T00:04:27;9.45;;;6.28;;
43449;SDS011;29041;42.266;23.110;2023-06-24T00:07:15;9.95;;;5.47;;
43449;SDS011;29041;42.266;23.110;2023-06-24T00:10:02;8.68;;;5.75;;
43449;SDS011;29041;42.266;23.110;2023-06-24T00:12:49;8.95;;;6.05;;
43449;SDS011;29041;42.266;23.110;2023-06-24T00:15:36;7.20;;;5.78;;
43449;SDS011;29041;42.266;23.110;2023-06-24T00:18:26;9.45;;;5.63;;
43449;SDS011;29041;42.266;23.110;2023-06-24T00:21:14;7.18;;;5.53;;
43449;SDS011;29041;42.266;23.110;2023-06-24T00:24:04;7.25;;;5.25;;
43449;SDS011;29041;42.266;23.110;2023-06-24T00:26:51;7.88;;;5.47;;
43449;SDS011;29041;42.266;23.110;2023-06-24T00:29:38;8.35;;;5.35;;
43449;SDS011;29041;42.266;23.110;2023-06-24T00:32:25;11.20;;;5.80;;
43449;SDS011;29041;42.266;23.110;2023-06-24T00:35:12;8.18;;;5.63;;
43449;SDS011;29041;42.266;23.110;2023-06-24T00:37:59;7.30;;;5.75;;
43449;SDS011;29041;42.266;23.110;2023-06-24T00:40:47;7.68;;;6.00;;
43449;SDS011;29041;42.266;23.110;2023-06-24T00:43:34;7.90;;;5.28;;
43449;SDS011;29041;42.266;23.110;2023-06-24T00:46:23;11.25;;;6.07;;
43449;SDS011;29041;42.266;23.110;2023-06-24T00:49:12;8.63;;;6.18;;
43449;SDS011;29041;42.266;23.110;2023-06-24T00:51:59;8.20;;;6.05;;
43449;SDS011;29041;42.266;23.110;2023-06-24T00:54:46;8.40;;;5.63;;
43449;SDS011;29041;42.266;23.110;2023-06-24T00:57:34;9.95;;;6.22;;
43449;SDS011;29041;42.266;23.110;2023-06-24T01:00:22;7.47;;;5.32;;
43449;SDS011;29041;42.266;23.110;2023-06-24T01:03:10;7.97;;;5.88;;
43449;SDS011;29041;42.266;23.110;2023-06-24T01:05:59;7.07;;;5.18;;
43449;SDS011;29041;42.266;23.110;2023-06-24T01:08:46;7.05;;;5.35;;
43449;SDS011;29041;42.266;23.110;2023-06-24T01:11:41;7.60;;;5.45;;
43449;SDS011;29041;42.266;23.110;2023-06-24T01:14:29;10.60;;;6.32;;
43449;SDS011;29041;42.266;23.110;2023-06-24T01:17:18;8.20;;;6.18;;
43449;SDS011;29041;42.266;23.110;2023-06-24T01:20:08;9.02;;;5.88;;
43449;SDS011;29041;42.266;23.110;2023-06-24T01:23:20;7.90;;;4.95;;
43449;SDS011;29041;42.266;23.110;2023-06-24T01:26:19;7.55;;;5.88;;
43449;SDS011;29041;42.266;23.110;2023-06-24T01:29:15;7.53;;;5.25;;
43449;SDS011;29041;42.266;23.110;2023-06-24T01:32:09;7.38;;;5.68;;
43449;SDS011;29041;42.266;23.110;2023-06-24T01:34:59;9.02;;;6.70;;
43449;SDS011;29041;42.266;23.110;2023-06-24T01:37:47;8.18;;;6.18;;
43449;SDS011;29041;42.266;23.110;2023-06-24T01:40:43;8.90;;;6.65;;
43449;SDS011;29041;42.266;23.110;2023-06-24T01:43:31;8.05;;;6.57;;
43449;SDS011;29041;42.266;23.110;2023-06-24T01:46:19;8.70;;;6.78;;
43449;SDS011;29041;42.266;23.110;2023-06-24T01:49:10;7.43;;;5.88;;
43449;SDS011;29041;42.266;23.110;2023-06-24T01:52:00;12.13;;;5.53;;
43449;SDS011;29041;42.266;23.110;2023-06-24T01:54:47;7.97;;;5.72;;
43449;SDS011;29041;42.266;23.110;2023-06-24T01:57:35;8.75;;;6.55;;
43449;SDS011;29041;42.266;23.110;2023-06-24T02:00:23;10.30;;;6.32;;
43449;SDS011;29041;42.266;23.110;2023-06-24T02:03:10;9.10;;;6.22;;
43449;SDS011;29041;42.266;23.110;2023-06-24T02:05:59;7.75;;;5.53;;
43449;SDS011;29041;42.266;23.110;2023-06-24T02:08:47;7.55;;;6.15;;
43449;SDS011;29041;42.266;23.110;2023-06-24T02:11:35;8.38;;;6.10;;
43449;SDS011;29041;42.266;23.110;2023-06-24T02:14:23;12.45;;;6.63;;
43449;SDS011;29041;42.266;23.110;2023-06-24T02:17:10;10.75;;;6.50;;
43449;SDS011;29041;42.266;23.110;2023-06-24T02:19:58;7.80;;;5.15;;
43449;SDS011;29041;42.266;23.110;2023-06-24T02:22:47;9.25;;;6.25;;
43449;SDS011;29041;42.266;23.110;2023-06-24T02:25:35;8.23;;;5.93;;
43449;SDS011;29041;42.266;23.110;2023-06-24T02:28:24;9.40;;;6.25;;
43449;SDS011;29041;42.266;23.110;2023-06-24T02:31:11;8.07;;;5.68;;
43449;SDS011;29041;42.266;23.110;2023-06-24T02:33:59;10.02;;;6.07;;
43449;SDS011;29041;42.266;23.110;2023-06-24T02:36:45;9.65;;;6.63;;
43449;SDS011;29041;42.266;23.110;2023-06-24T02:39:32;8.73;;;5.95;;
43449;SDS011;29041;42.266;23.110;2023-06-24T02:42:22;9.32;;;6.35;;
43449;SDS011;29041;42.266;23.110;2023-06-24T02:45:09;9.18;;;5.53;;
43449;SDS011;29041;42.266;23.110;2023-06-24T02:47:56;8.73;;;5.70;;
43449;SDS011;29041;42.266;23.110;2023-06-24T02:50:43;9.75;;;6.15;;
43449;SDS011;29041;42.266;23.110;2023-06-24T02:53:31;10.52;;;6.20;;
43449;SDS011;29041;42.266;23.110;2023-06-24T02:56:18;10.73;;;6.88;;
43449;SDS011;29041;42.266;23.110;2023-06-24T02:59:07;8.35;;;6.50;;
43449;SDS011;29041;42.266;23.110;2023-06-24T03:01:54;8.70;;;6.05;;
43449;SDS011;29041;42.266;23.110;2023-06-24T03:04:42;11.38;;;6.95;;
43449;SDS011;29041;42.266;23.110;2023-06-24T03:07:29;10.15;;;6.40;;
43449;SDS011;29041;42.266;23.110;2023-06-24T03:10:16;8.85;;;6.03;;
43449;SDS011;29041;42.266;23.110;2023-06-24T03:13:03;8.07;;;6.15;;
43449;SDS011;29041;42.266;23.110;2023-06-24T03:15:52;9.15;;;6.22;;
43449;SDS011;29041;42.266;23.110;2023-06-24T03:18:40;7.65;;;6.50;;
43449;SDS011;29041;42.266;23.110;2023-06-24T03:21:27;11.32;;;6.80;;
43449;SDS011;29041;42.266;23.110;2023-06-24T03:24:14;8.90;;;6.53;;
43449;SDS011;29041;42.266;23.110;2023-06-24T03:27:01;8.15;;;6.03;;
43449;SDS011;29041;42.266;23.110;2023-06-24T03:29:48;9.73;;;5.78;;
43449;SDS011;29041;42.266;23.110;2023-06-24T03:32:36;8.52;;;6.78;;
43449;SDS011;29041;42.266;23.110;2023-06-24T03:35:23;12.27;;;6.40;;
43449;SDS011;29041;42.266;23.110;2023-06-24T03:38:10;9.02;;;6.07;;
43449;SDS011;29041;42.266;23.110;2023-06-24T03:40:57;10.32;;;6.40;;
43449;SDS011;29041;42.266;23.110;2023-06-24T03:43:44;8.30;;;6.20;;
43449;SDS011;29041;42.266;23.110;2023-06-24T03:46:31;12.27;;;6.68;;
43449;SDS011;29041;42.266;23.110;2023-06-24T03:49:19;10.85;;;6.32;;
43449;SDS011;29041;42.266;23.110;2023-06-24T03:52:06;11.88;;;6.43;;
43449;SDS011;29041;42.266;23.110;2023-06-24T03:54:54;10.07;;;7.93;;
43449;SDS011;29041;42.266;23.110;2023-06-24T03:57:41;10.10;;;6.60;;
43449;SDS011;29041;42.266;23.110;2023-06-24T04:00:28;12.65;;;7.03;;
43449;SDS011;29041;42.266;23.110;2023-06-24T04:03:15;11.10;;;6.13;;
43449;SDS011;29041;42.266;23.110;2023-06-24T04:06:04;10.98;;;6.57;;
43449;SDS011;29041;42.266;23.110;2023-06-24T04:08:51;9.18;;;5.72;;
43449;SDS011;29041;42.266;23.110;2023-06-24T04:11:38;11.13;;;6.40;;
43449;SDS011;29041;42.266;23.110;2023-06-24T04:14:25;8.65;;;6.20;;
43449;SDS011;29041;42.266;23.110;2023-06-24T04:17:12;10.10;;;6.38;;
43449;SDS011;29041;42.266;23.110;2023-06-24T04:19:59;13.63;;;7.70;;
43449;SDS011;29041;42.266;23.110;2023-06-24T04:22:47;12.10;;;6.25;;
43449;SDS011;29041;42.266;23.110;2023-06-24T04:25:34;9.73;;;6.85;;
43449;SDS011;29041;42.266;23.110;2023-06-24T04:28:21;10.02;;;6.82;;
43449;SDS011;29041;42.266;23.110;2023-06-24T04:31:18;14.52;;;7.57;;
43449;SDS011;29041;42.266;23.110;2023-06-24T04:34:05;12.02;;;7.20;;
43449;SDS011;29041;42.266;23.110;2023-06-24T04:36:52;8.10;;;6.30;;
43449;SDS011;29041;42.266;23.110;2023-06-24T04:39:43;10.02;;;6.32;;
43449;SDS011;29041;42.266;23.110;2023-06-24T04:42:31;11.20;;;6.68;;
43449;SDS011;29041;42.266;23.110;2023-06-24T04:45:18;9.38;;;6.97;;
43449;SDS011;29041;42.266;23.110;2023-06-24T04:48:05;10.00;;;6.80;;
43449;SDS011;29041;42.266;23.110;2023-06-24T04:50:52;10.70;;;7.40;;
43449;SDS011;29041;42.266;23.110;2023-06-24T04:53:40;13.27;;;7.57;;
43449;SDS011;29041;42.266;23.110;2023-06-24T04:56:28;10.40;;;7.78;;
43449;SDS011;29041;42.266;23.110;2023-06-24T04:59:15;13.38;;;7.78;;
43449;SDS011;29041;42.266;23.110;2023-06-24T05:02:02;11.70;;;7.35;;
43449;SDS011;29041;42.266;23.110;2023-06-24T05:04:49;14.10;;;7.32;;
43449;SDS011;29041;42.266;23.110;2023-06-24T05:07:37;15.07;;;7.03;;
43449;SDS011;29041;42.266;23.110;2023-06-24T05:10:24;12.18;;;6.40;;
43449;SDS011;29041;42.266;23.110;2023-06-24T05:13:13;15.50;;;7.05;;
43449;SDS011;29041;42.266;23.110;2023-06-24T05:16:00;11.40;;;6.90;;
43449;SDS011;29041;42.266;23.110;2023-06-24T05:18:47;10.18;;;6.43;;
43449;SDS011;29041;42.266;23.110;2023-06-24T05:21:33;9.45;;;6.53;;
43449;SDS011;29041;42.266;23.110;2023-06-24T05:24:20;14.98;;;7.25;;
43449;SDS011;29041;42.266;23.110;2023-06-24T05:27:07;11.55;;;6.78;;
43449;SDS011;29041;42.266;23.110;2023-06-24T05:29:56;9.25;;;6.40;;
43449;SDS011;29041;42.266;23.110;2023-06-24T05:32:43;12.02;;;7.32;;
43449;SDS011;29041;42.266;23.110;2023-06-24T05:35:30;8.85;;;6.45;;
43449;SDS011;29041;42.266;23.110;2023-06-24T05:38:16;18.65;;;8.40;;
43449;SDS011;29041;42.266;23.110;2023-06-24T05:41:03;10.35;;;6.40;;
43449;SDS011;29041;42.266;23.110;2023-06-24T05:44:00;9.57;;;7.13;;
43449;SDS011;29041;42.266;23.110;2023-06-24T05:46:48;12.40;;;6.80;;
43449;SDS011;29041;42.266;23.110;2023-06-24T05:49:35;11.65;;;6.20;;
43449;SDS011;29041;42.266;23.110;2023-06-24T05:52:22;13.13;;;7.40;;
43449;SDS011;29041;42.266;23.110;2023-06-24T05:55:09;8.63;;;6.35;;
43449;SDS011;29041;42.266;23.110;2023-06-24T05:57:56;8.13;;;6.40;;
43449;SDS011;29041;42.266;23.110;2023-06-24T06:00:43;14.27;;;6.90;;
43449;SDS011;29041;42.266;23.110;2023-06-24T06:03:32;12.55;;;6.65;;
43449;SDS011;29041;42.266;23.110;2023-06-24T06:06:19;7.82;;;6.50;;
43449;SDS011;29041;42.266;23.110;2023-06-24T06:09:06;10.77;;;6.53;;
43449;SDS011;29041;42.266;23.110;2023-06-24T06:11:52;13.80;;;7.47;;
43449;SDS011;29041;42.266;23.110;2023-06-24T06:14:39;9.68;;;7.45;;
43449;SDS011;29041;42.266;23.110;2023-06-24T06:17:26;11.45;;;7.72;;
43449;SDS011;29041;42.266;23.110;2023-06-24T06:20:16;10.88;;;8.00;;
43449;SDS011;29041;42.266;23.110;2023-06-24T06:23:02;10.57;;;7.43;;
43449;SDS011;29041;42.266;23.110;2023-06-24T06:25:50;11.85;;;7.55;;
43449;SDS011;29041;42.266;23.110;2023-06-24T06:28:37;16.23;;;8.32;;
43449;SDS011;29041;42.266;23.110;2023-06-24T06:31:24;18.20;;;9.95;;
43449;SDS011;29041;42.266;23.110;2023-06-24T06:34:11;15.43;;;8.18;;
43449;SDS011;29041;42.266;23.110;2023-06-24T06:36:59;21.17;;;9.98;;
43449;SDS011;29041;42.266;23.110;2023-06-24T06:39:48;22.58;;;9.93;;
43449;SDS011;29041;42.266;23.110;2023-06-24T06:42:34;19.45;;;10.20;;
43449;SDS011;29041;42.266;23.110;2023-06-24T06:45:22;14.07;;;8.60;;
43449;SDS011;29041;42.266;23.110;2023-06-24T06:48:09;15.55;;;9.50;;
43449;SDS011;29041;42.266;23.110;2023-06-24T06:50:55;16.08;;;9.15;;
43449;SDS011;29041;42.266;23.110;2023-06-24T06:53:44;12.57;;;8.82;;
43449;SDS011;29041;42.266;23.110;2023-06-24T06:56:31;13.85;;;8.15;;
43449;SDS011;29041;42.266;23.110;2023-06-24T06:59:17;12.32;;;8.82;;
43449;SDS011;29041;42.266;23.110;2023-06-24T07:02:05;14.25;;;9.23;;
43449;SDS011;29041;42.266;23.110;2023-06-24T07:04:52;18.77;;;10.07;;
43449;SDS011;29041;42.266;23.110;2023-06-24T07:07:39;11.30;;;8.73;;
43449;SDS011;29041;42.266;23.110;2023-06-24T07:10:27;15.35;;;8.55;;
43449;SDS011;29041;42.266;23.110;2023-06-24T07:13:14;16.67;;;10.30;;
43449;SDS011;29041;42.266;23.110;2023-06-24T07:16:01;16.80;;;10.43;;
43449;SDS011;29041;42.266;23.110;2023-06-24T07:18:48;12.25;;;7.85;;
43449;SDS011;29041;42.266;23.110;2023-06-24T07:21:34;14.25;;;9.02;;
43449;SDS011;29041;42.266;23.110;2023-06-24T07:24:21;16.52;;;9.65;;
43449;SDS011;29041;42.266;23.110;2023-06-24T07:27:10;17.25;;;11.10;;
43449;SDS011;29041;42.266;23.110;2023-06-24T07:29:57;17.17;;;8.52;;
43449;SDS011;29041;42.266;23.110;2023-06-24T07:32:43;11.75;;;8.80;;
43449;SDS011;29041;42.266;23.110;2023-06-24T07:35:30;20.80;;;8.93;;
43449;SDS011;29041;42.266;23.110;2023-06-24T07:38:17;16.92;;;9.50;;
43449;SDS011;29041;42.266;23.110;2023-06-24T07:41:04;14.15;;;9.52;;
43449;SDS011;29041;42.266;23.110;2023-06-24T07:43:52;13.45;;;8.40;;
43449;SDS011;29041;42.266;23.110;2023-06-24T07:46:40;9.38;;;7.95;;
43449;SDS011;29041;42.266;23.110;2023-06-24T07:49:27;9.50;;;7.28;;
43449;SDS011;29041;42.266;23.110;2023-06-24T07:52:14;9.70;;;7.28;;
43449;SDS011;29041;42.266;23.110;2023-06-24T07:55:01;10.57;;;7.80;;
43449;SDS011;29041;42.266;23.110;2023-06-24T07:57:48;12.65;;;7.72;;
43449;SDS011;29041;42.266;23.110;2023-06-24T08:00:37;9.05;;;8.07;;
43449;SDS011;29041;42.266;23.110;2023-06-24T08:03:24;10.02;;;7.15;;
43449;SDS011;29041;42.266;23.110;2023-06-24T08:06:10;9.90;;;7.25;;
43449;SDS011;29041;42.266;23.110;2023-06-24T08:08:57;11.05;;;7.20;;
43449;SDS011;29041;42.266;23.110;2023-06-24T08:11:44;12.45;;;7.80;;
43449;SDS011;29041;42.266;23.110;2023-06-24T08:14:31;12.23;;;7.15;;
43449;SDS011;29041;42.266;23.110;2023-06-24T08:17:19;10.35;;;6.30;;
43449;SDS011;29041;42.266;23.110;2023-06-24T08:20:07;11.38;;;6.18;;
43449;SDS011;29041;42.266;23.110;2023-06-24T08:22:54;9.07;;;7.35;;
43449;SDS011;29041;42.266;23.110;2023-06-24T08:25:43;11.00;;;6.70;;
43449;SDS011;29041;42.266;23.110;2023-06-24T08:28:30;7.43;;;6.10;;
43449;SDS011;29041;42.266;23.110;2023-06-24T08:31:17;7.13;;;5.95;;
43449;SDS011;29041;42.266;23.110;2023-06-24T08:34:09;6.93;;;5.55;;
43449;SDS011;29041;42.266;23.110;2023-06-24T08:36:56;7.57;;;5.80;;
43449;SDS011;29041;42.266;23.110;2023-06-24T08:39:45;7.82;;;6.10;;
43449;SDS011;29041;42.266;23.110;2023-06-24T08:42:31;10.10;;;5.65;;
43449;SDS011;29041;42.266;23.110;2023-06-24T08:45:18;9.93;;;5.82;;
43449;SDS011;29041;42.266;23.110;2023-06-24T08:48:05;6.72;;;5.50;;
43449;SDS011;29041;42.266;23.110;2023-06-24T08:50:54;11.63;;;6.30;;
43449;SDS011;29041;42.266;23.110;2023-06-24T08:53:42;6.88;;;5.55;;
43449;SDS011;29041;42.266;23.110;2023-06-24T08:56:29;9.27;;;6.65;;
43449;SDS011;29041;42.266;23.110;2023-06-24T08:59:16;9.73;;;6.13;;
43449;SDS011;29041;42.266;23.110;2023-06-24T09:02:05;9.05;;;6.32;;
43449;SDS011;29041;42.266;23.110;2023-06-24T09:04:52;7.00;;;5.95;;
43449;SDS011;29041;42.266;23.110;2023-06-24T09:07:41;10.30;;;6.00;;
43449;SDS011;29041;42.266;23.110;2023-06-24T09:10:29;8.65;;;6.43;;
43449;SDS011;29041;42.266;23.110;2023-06-24T09:13:16;7.47;;;5.78;;
43449;SDS011;29041;42.266;23.110;2023-06-24T09:16:13;6.80;;;5.45;;
43449;SDS011;29041;42.266;23.110;2023-06-24T09:19:01;9.07;;;6.45;;
43449;SDS011;29041;42.266;23.110;2023-06-24T09:21:48;7.10;;;6.25;;
43449;SDS011;29041;42.266;23.110;2023-06-24T09:24:36;7.70;;;6.22;;
43449;SDS011;29041;42.266;23.110;2023-06-24T09:27:23;10.45;;;6.20;;
43449;SDS011;29041;42.266;23.110;2023-06-24T09:30:16;7.75;;;6.57;;
43449;SDS011;29041;42.266;23.110;2023-06-24T09:33:05;9.13;;;7.03;;
43449;SDS011;29041;42.266;23.110;2023-06-24T09:35:53;11.30;;;6.22;;
43449;SDS011;29041;42.266;23.110;2023-06-24T09:38:41;8.38;;;7.00;;
43449;SDS011;29041;42.266;23.110;2023-06-24T09:41:31;11.02;;;7.47;;
43449;SDS011;29041;42.266;23.110;2023-06-24T09:44:18;9.82;;;7.65;;
43449;SDS011;29041;42.266;23.110;2023-06-24T09:47:05;12.02;;;7.70;;
43449;SDS011;29041;42.266;23.110;2023-06-24T09:49:53;13.27;;;8.15;;
43449;SDS011;29041;42.266;23.110;2023-06-24T09:52:40;10.18;;;8.70;;
43449;SDS011;29041;42.266;23.110;2023-06-24T09:55:28;11.20;;;8.48;;
43449;SDS011;29041;42.266;23.110;2023-06-24T09:58:16;8.57;;;6.80;;
43449;SDS011;29041;42.266;23.110;2023-06-24T10:01:05;8.20;;;7.40;;
43449;SDS011;29041;42.266;23.110;2023-06-24T10:03:52;13.73;;;7.28;;
43449;SDS011;29041;42.266;23.110;2023-06-24T10:06:39;11.80;;;8.43;;
43449;SDS011;29041;42.266;23.110;2023-06-24T10:09:26;12.23;;;8.10;;
43449;SDS011;29041;42.266;23.110;2023-06-24T10:12:13;12.60;;;7.57;;
43449;SDS011;29041;42.266;23.110;2023-06-24T10:15:02;9.57;;;8.27;;
43449;SDS011;29041;42.266;23.110;2023-06-24T10:17:50;10.88;;;8.35;;
43449;SDS011;29041;42.266;23.110;2023-06-24T10:20:37;9.05;;;6.65;;
43449;SDS011;29041;42.266;23.110;2023-06-24T10:23:28;8.93;;;7.90;;
43449;SDS011;29041;42.266;23.110;2023-06-24T10:26:21;9.07;;;7.05;;
43449;SDS011;29041;42.266;23.110;2023-06-24T10:29:11;11.27;;;7.55;;
43449;SDS011;29041;42.266;23.110;2023-06-24T10:32:07;9.75;;;7.90;;
43449;SDS011;29041;42.266;23.110;2023-06-24T10:34:55;12.00;;;8.10;;
43449;SDS011;29041;42.266;23.110;2023-06-24T10:37:47;11.25;;;7.85;;
43449;SDS011;29041;42.266;23.110;2023-06-24T10:40:41;9.85;;;7.30;;
43449;SDS011;29041;42.266;23.110;2023-06-24T10:43:28;10.57;;;7.25;;
43449;SDS011;29041;42.266;23.110;2023-06-24T10:46:16;9.98;;;6.85;;
43449;SDS011;29041;42.266;23.110;2023-06-24T10:49:07;9.25;;;7.15;;
43449;SDS011;29041;42.266;23.110;2023-06-24T10:51:54;12.93;;;7.70;;
43449;SDS011;29041;42.266;23.110;2023-06-24T10:54:40;8.25;;;6.75;;
43449;SDS011;29041;42.266;23.110;2023-06-24T10:57:27;10.55;;;7.07;;
43449;SDS011;29041;42.266;23.110;2023-06-24T11:00:20;12.93;;;7.85;;
43449;SDS011;29041;42.266;23.110;2023-06-24T11:03:07;8.57;;;7.10;;
43449;SDS011;29041;42.266;23.110;2023-06-24T11:05:56;9.07;;;6.85;;
43449;SDS011;29041;42.266;23.110;2023-06-24T11:08:43;10.35;;;6.70;;
43449;SDS011;29041;42.266;23.110;2023-06-24T11:11:30;9.13;;;7.00;;
43449;SDS011;29041;42.266;23.110;2023-06-24T11:14:16;9.77;;;7.15;;
43449;SDS011;29041;42.266;23.110;2023-06-24T11:17:04;8.20;;;7.10;;
43449;SDS011;29041;42.266;23.110;2023-06-24T11:19:52;10.60;;;7.88;;
43449;SDS011;29041;42.266;23.110;2023-06-24T11:22:40;7.97;;;6.93;;
43449;SDS011;29041;42.266;23.110;2023-06-24T11:25:28;7.50;;;6.70;;
43449;SDS011;29041;42.266;23.110;2023-06-24T11:28:16;9.45;;;7.50;;
43449;SDS011;29041;42.266;23.110;2023-06-24T11:34:18;9.27;;;7.38;;
43449;SDS011;29041;42.266;23.110;2023-06-24T11:37:11;10.43;;;7.43;;
43449;SDS011;29041;42.266;23.110;2023-06-24T11:40:03;9.38;;;6.95;;
43449;SDS011;29041;42.266;23.110;2023-06-24T11:42:51;11.27;;;5.30;;
43449;SDS011;29041;42.266;23.110;2023-06-24T11:45:38;7.15;;;5.30;;
43449;SDS011;29041;42.266;23.110;2023-06-24T11:48:27;7.72;;;5.40;;
43449;SDS011;29041;42.266;23.110;2023-06-24T11:51:15;7.88;;;5.75;;
43449;SDS011;29041;42.266;23.110;2023-06-24T11:54:02;8.80;;;5.55;;
43449;SDS011;29041;42.266;23.110;2023-06-24T11:56:52;8.52;;;5.38;;
43449;SDS011;29041;42.266;23.110;2023-06-24T11:59:39;7.35;;;5.50;;
43449;SDS011;29041;42.266;23.110;2023-06-24T12:02:32;8.65;;;6.20;;
43449;SDS011;29041;42.266;23.110;2023-06-24T12:08:11;10.55;;;5.63;;
43449;SDS011;29041;42.266;23.110;2023-06-24T12:10:59;9.52;;;5.25;;
43449;SDS011;29041;42.266;23.110;2023-06-24T12:13:48;10.57;;;6.55;;
43449;SDS011;29041;42.266;23.110;2023-06-24T12:16:35;7.75;;;5.85;;
43449;SDS011;29041;42.266;23.110;2023-06-24T12:19:21;5.82;;;4.15;;
43449;SDS011;29041;42.266;23.110;2023-06-24T12:22:08;7.38;;;4.63;;
43449;SDS011;29041;42.266;23.110;2023-06-24T12:24:55;6.90;;;5.00;;
43449;SDS011;29041;42.266;23.110;2023-06-24T12:27:42;8.73;;;5.85;;
43449;SDS011;29041;42.266;23.110;2023-06-24T12:30:31;8.95;;;7.20;;
43449;SDS011;29041;42.266;23.110;2023-06-24T12:33:18;8.27;;;6.30;;
43449;SDS011;29041;42.266;23.110;2023-06-24T12:36:06;10.35;;;8.20;;
43449;SDS011;29041;42.266;23.110;2023-06-24T12:38:53;9.35;;;7.78;;
43449;SDS011;29041;42.266;23.110;2023-06-24T12:41:40;7.18;;;6.00;;
43449;SDS011;29041;42.266;23.110;2023-06-24T12:44:27;12.55;;;7.18;;
43449;SDS011;29041;42.266;23.110;2023-06-24T12:47:16;10.07;;;6.80;;
43449;SDS011;29041;42.266;23.110;2023-06-24T12:50:04;12.60;;;7.70;;
43449;SDS011;29041;42.266;23.110;2023-06-24T12:52:52;9.80;;;7.72;;
43449;SDS011;29041;42.266;23.110;2023-06-24T12:55:39;12.05;;;8.23;;
43449;SDS011;29041;42.266;23.110;2023-06-24T12:58:26;10.68;;;6.95;;
43449;SDS011;29041;42.266;23.110;2023-06-24T13:01:13;10.30;;;7.65;;
43449;SDS011;29041;42.266;23.110;2023-06-24T13:04:01;13.25;;;8.48;;
43449;SDS011;29041;42.266;23.110;2023-06-24T13:06:48;11.15;;;8.00;;
43449;SDS011;29041;42.266;23.110;2023-06-24T13:09:36;10.77;;;7.18;;
43449;SDS011;29041;42.266;23.110;2023-06-24T13:12:22;12.05;;;7.80;;
43449;SDS011;29041;42.266;23.110;2023-06-24T13:15:10;12.55;;;7.55;;
43449;SDS011;29041;42.266;23.110;2023-06-24T13:34:56;12.15;;;7.03;;
43449;SDS011;29041;42.266;23.110;2023-06-24T13:37:44;10.65;;;6.70;;
43449;SDS011;29041;42.266;23.110;2023-06-24T13:40:31;8.98;;;7.40;;
43449;SDS011;29041;42.266;23.110;2023-06-24T13:43:18;11.57;;;7.65;;
43449;SDS011;29041;42.266;23.110;2023-06-24T13:46:06;10.23;;;6.75;;
43449;SDS011;29041;42.266;23.110;2023-06-24T13:48:53;13.43;;;7.75;;
43449;SDS011;29041;42.266;23.110;2023-06-24T13:51:42;21.10;;;7.55;;
43449;SDS011;29041;42.266;23.110;2023-06-24T13:54:29;11.68;;;7.97;;
43449;SDS011;29041;42.266;23.110;2023-06-24T13:57:18;9.15;;;6.97;;
43449;SDS011;29041;42.266;23.110;2023-06-24T14:00:06;13.38;;;6.72;;
43449;SDS011;29041;42.266;23.110;2023-06-24T14:02:55;11.27;;;6.53;;
43449;SDS011;29041;42.266;23.110;2023-06-24T14:05:42;15.60;;;7.93;;
43449;SDS011;29041;42.266;23.110;2023-06-24T14:08:31;13.57;;;7.80;;
43449;SDS011;29041;42.266;23.110;2023-06-24T14:11:19;10.73;;;6.65;;
43449;SDS011;29041;42.266;23.110;2023-06-24T14:14:07;9.68;;;6.40;;
43449;SDS011;29041;42.266;23.110;2023-06-24T14:16:54;12.82;;;7.68;;
43449;SDS011;29041;42.266;23.110;2023-06-24T14:19:41;12.85;;;7.80;;
43449;SDS011;29041;42.266;23.110;2023-06-24T14:22:28;14.98;;;8.52;;
43449;SDS011;29041;42.266;23.110;2023-06-24T14:25:17;10.32;;;7.40;;
43449;SDS011;29041;42.266;23.110;2023-06-24T14:28:04;12.38;;;7.72;;
43449;SDS011;29041;42.266;23.110;2023-06-24T14:30:52;9.35;;;7.88;;
43449;SDS011;29041;42.266;23.110;2023-06-24T14:33:40;9.60;;;7.40;;
43449;SDS011;29041;42.266;23.110;2023-06-24T14:36:27;11.15;;;7.63;;
43449;SDS011;29041;42.266;23.110;2023-06-24T14:39:15;12.07;;;8.48;;
43449;SDS011;29041;42.266;23.110;2023-06-24T14:42:05;11.48;;;7.75;;
43449;SDS011;29041;42.266;23.110;2023-06-24T14:44:53;12.00;;;8.70;;
43449;SDS011;29041;42.266;23.110;2023-06-24T14:47:40;13.38;;;8.23;;
43449;SDS011;29041;42.266;23.110;2023-06-24T14:50:28;13.57;;;8.90;;
43449;SDS011;29041;42.266;23.110;2023-06-24T14:53:16;12.00;;;8.68;;
43449;SDS011;29041;42.266;23.110;2023-06-24T14:56:06;15.07;;;10.35;;
43449;SDS011;29041;42.266;23.110;2023-06-24T14:58:56;15.98;;;10.00;;
43449;SDS011;29041;42.266;23.110;2023-06-24T15:01:44;13.68;;;8.48;;
43449;SDS011;29041;42.266;23.110;2023-06-24T15:04:31;11.88;;;9.20;;
43449;SDS011;29041;42.266;23.110;2023-06-24T15:07:19;14.35;;;10.63;;
43449;SDS011;29041;42.266;23.110;2023-06-24T15:10:06;14.40;;;8.15;;
43449;SDS011;29041;42.266;23.110;2023-06-24T15:12:54;11.43;;;7.70;;
43449;SDS011;29041;42.266;23.110;2023-06-24T15:15:42;18.70;;;9.18;;
43449;SDS011;29041;42.266;23.110;2023-06-24T15:18:29;12.23;;;8.68;;
43449;SDS011;29041;42.266;23.110;2023-06-24T15:21:16;17.05;;;10.32;;
43449;SDS011;29041;42.266;23.110;2023-06-24T15:24:05;16.20;;;9.73;;
43449;SDS011;29041;42.266;23.110;2023-06-24T15:26:53;10.88;;;7.22;;
43449;SDS011;29041;42.266;23.110;2023-06-24T15:29:40;11.27;;;7.32;;
43449;SDS011;29041;42.266;23.110;2023-06-24T15:32:30;12.48;;;8.32;;
43449;SDS011;29041;42.266;23.110;2023-06-24T15:35:20;9.68;;;7.78;;
43449;SDS011;29041;42.266;23.110;2023-06-24T15:38:07;10.70;;;7.53;;
43449;SDS011;29041;42.266;23.110;2023-06-24T15:40:55;12.05;;;7.47;;
43449;SDS011;29041;42.266;23.110;2023-06-24T15:43:42;12.65;;;6.72;;
43449;SDS011;29041;42.266;23.110;2023-06-24T15:46:29;10.40;;;7.30;;
43449;SDS011;29041;42.266;23.110;2023-06-24T15:49:18;14.63;;;8.45;;
43449;SDS011;29041;42.266;23.110;2023-06-24T15:52:06;12.30;;;8.52;;
43449;SDS011;29041;42.266;23.110;2023-06-24T15:54:53;16.13;;;9.02;;
43449;SDS011;29041;42.266;23.110;2023-06-24T15:57:41;12.10;;;7.70;;
43449;SDS011;29041;42.266;23.110;2023-06-24T16:00:28;16.10;;;8.38;;
43449;SDS011;29041;42.266;23.110;2023-06-24T16:03:15;9.10;;;6.82;;
43449;SDS011;29041;42.266;23.110;2023-06-24T16:06:04;10.98;;;7.57;;
43449;SDS011;29041;42.266;23.110;2023-06-24T16:08:51;9.43;;;6.78;;
43449;SDS011;29041;42.266;23.110;2023-06-24T16:11:38;12.73;;;8.35;;
43449;SDS011;29041;42.266;23.110;2023-06-24T16:14:25;28.55;;;17.63;;
43449;SDS011;29041;42.266;23.110;2023-06-24T17:32:07;12.93;;;6.72;;
43449;SDS011;29041;42.266;23.110;2023-06-24T17:34:55;9.60;;;6.68;;
43449;SDS011;29041;42.266;23.110;2023-06-24T17:37:42;11.18;;;6.28;;
43449;SDS011;29041;42.266;23.110;2023-06-24T17:40:29;13.82;;;6.28;;
43449;SDS011;29041;42.266;23.110;2023-06-24T17:43:29;9.20;;;5.50;;
43449;SDS011;29041;42.266;23.110;2023-06-24T17:46:18;11.10;;;7.28;;
43449;SDS011;29041;42.266;23.110;2023-06-24T17:49:07;13.23;;;6.07;;
43449;SDS011;29041;42.266;23.110;2023-06-24T17:51:54;9.32;;;5.43;;
43449;SDS011;29041;42.266;23.110;2023-06-24T17:54:42;9.57;;;5.90;;
43449;SDS011;29041;42.266;23.110;2023-06-24T17:57:29;10.32;;;6.03;;
43449;SDS011;29041;42.266;23.110;2023-06-24T18:00:17;14.07;;;6.55;;
43449;SDS011;29041;42.266;23.110;2023-06-24T18:03:07;9.10;;;5.88;;
43449;SDS011;29041;42.266;23.110;2023-06-24T18:05:56;9.68;;;5.57;;